Time;durP1;ratioP1;P1;durP2;ratioP2;P2;SDS_P1;SDS_P2;PMS_P1;PMS_P2;Temp;Humidity;BMP_temperature;BMP_pressure;BME280_temperature;BME280_humidity;BME280_pressure;Samples;Min_cycle;Max_cycle;Signal;HPM_P1;HPM_P2
2022/10/05 00:01:23;;;;;;;7.50;4.40;;;16.80;63.10;;;;;;5047080;28;20821;-47
2022/10/05 00:03:50;;;;;;;6.73;4.67;;;16.90;62.50;;;;;;5045501;28;20451;-48
2022/10/05 00:06:15;;;;;;;5.17;4.70;;;16.90;62.20;;;;;;5049242;28;20522;-47
2022/10/05 00:08:42;;;;;;;5.13;4.63;;;17.00;62.00;;;;;;5046186;28;20640;-46
2022/10/05 00:11:08;;;;;;;5.73;4.10;;;17.20;61.10;;;;;;5047184;28;20199;-47
2022/10/05 00:13:34;;;;;;;6.10;5.50;;;17.40;60.60;;;;;;5037116;28;20480;-47
2022/10/05 00:16:18;;;;;;;9.73;5.30;;;17.30;59.90;;;;;;5049053;28;20462;-47
2022/10/05 00:18:48;;;;;;;8.10;4.60;;;17.50;59.70;;;;;;5039422;28;20197;-51
2022/10/05 00:21:18;;;;;;;5.17;4.70;;;17.60;59.30;;;;;;5038810;28;20459;-51
2022/10/05 00:23:44;;;;;;;5.77;5.00;;;17.50;59.20;;;;;;5043917;28;20543;-49
2022/10/05 00:26:25;;;;;;;7.30;4.63;;;17.20;59.50;;;;;;5046656;28;20439;-48
2022/10/05 00:28:52;;;;;;;5.10;4.23;;;17.10;61.20;;;;;;5045062;28;20236;-51
2022/10/05 00:31:39;;;;;;;6.10;4.53;;;16.90;60.20;;;;;;5056075;28;20466;-51
2022/10/05 00:34:05;;;;;;;5.00;4.60;;;16.90;60.80;;;;;;5041593;28;20506;-49
2022/10/05 00:36:30;;;;;;;4.73;4.03;;;16.90;60.10;;;;;;5047716;28;20534;-47
2022/10/05 00:38:58;;;;;;;5.60;5.00;;;16.90;60.70;;;;;;5048938;28;20196;-46
2022/10/05 00:41:45;;;;;;;4.90;3.90;;;16.90;60.30;;;;;;5041992;28;20560;-47
2022/10/05 00:44:31;;;;;;;5.80;4.90;;;16.90;60.30;;;;;;5042104;28;20439;-49
2022/10/05 00:47:14;;;;;;;7.40;4.90;;;17.00;60.50;;;;;;5042591;28;20450;-49
2022/10/05 00:49:58;;;;;;;5.70;4.50;;;16.90;60.40;;;;;;5041233;28;20446;-47
2022/10/05 00:52:41;;;;;;;4.97;4.43;;;16.90;60.20;;;;;;5037701;28;20443;-47
2022/10/05 00:55:17;;;;;;;5.10;4.57;;;17.00;60.30;;;;;;5041230;28;20454;-48
2022/10/05 00:58:03;;;;;;;4.90;4.43;;;17.10;59.70;;;;;;5039278;28;20459;-51
2022/10/05 01:00:30;;;;;;;5.93;4.47;;;17.20;59.40;;;;;;5042539;28;20454;-47
2022/10/05 01:03:10;;;;;;;5.23;4.50;;;17.00;59.50;;;;;;5043939;28;20789;-48
2022/10/05 01:06:02;;;;;;;4.90;4.20;;;17.10;59.50;;;;;;5036281;28;20530;-48
2022/10/05 01:08:50;;;;;;;4.37;3.97;;;17.20;59.30;;;;;;5045994;28;20848;-48
2022/10/05 01:11:21;;;;;;;5.17;4.67;;;17.30;59.00;;;;;;5045954;28;20492;-47
2022/10/05 01:13:58;;;;;;;5.03;4.63;;;17.40;58.60;;;;;;5043200;28;20495;-47
2022/10/05 01:16:58;;;;;;;4.47;4.07;;;17.40;58.20;;;;;;5041017;28;20946;-51
2022/10/05 01:19:46;;;;;;;4.73;4.10;;;17.40;58.10;;;;;;5036023;28;20927;-48
2022/10/05 01:22:33;;;;;;;4.90;4.50;;;17.40;57.90;;;;;;5039005;28;20490;-48
2022/10/05 01:25:11;;;;;;;4.67;4.27;;;17.20;58.00;;;;;;5043156;28;20453;-47
2022/10/05 01:27:52;;;;;;;5.57;4.93;;;16.70;59.30;;;;;;5043412;28;20475;-46
2022/10/05 01:30:20;;;;;;;6.83;3.93;;;16.70;60.00;;;;;;5047048;28;20471;-48
2022/10/05 01:33:06;;;;;;;6.50;4.73;;;16.80;59.40;;;;;;5042835;28;20475;-47
2022/10/05 01:35:52;;;;;;;5.40;4.90;;;16.80;59.30;;;;;;5046857;28;20945;-46
2022/10/05 01:38:35;;;;;;;5.90;5.17;;;16.90;58.90;;;;;;5043116;28;20443;-46
2022/10/05 01:41:43;;;;;;;5.27;4.87;;;16.90;58.40;;;;;;5044052;28;20459;-47
2022/10/05 01:44:16;;;;;;;5.43;3.60;;;16.90;58.20;;;;;;5033516;28;20462;-46
2022/10/05 01:46:53;;;;;;;6.33;4.40;;;17.00;58.10;;;;;;5042521;28;20450;-48
2022/10/05 01:49:35;;;;;;;5.30;4.80;;;17.00;58.10;;;;;;5044290;28;20829;-47
2022/10/05 01:52:15;;;;;;;5.23;4.23;;;16.70;58.40;;;;;;5043584;28;20771;-46
2022/10/05 01:55:02;;;;;;;6.37;4.50;;;16.70;59.00;;;;;;5046298;28;20533;-46
2022/10/05 01:57:46;;;;;;;4.40;3.90;;;16.70;58.60;;;;;;5042489;28;20447;-46
2022/10/05 02:00:17;;;;;;;4.80;4.20;;;16.80;58.60;;;;;;5042933;28;20439;-48
2022/10/05 02:03:23;;;;;;;4.80;4.40;;;16.70;58.80;;;;;;5043765;28;20442;-47
2022/10/05 02:06:00;;;;;;;4.40;4.00;;;16.70;59.10;;;;;;5038168;28;20461;-49
2022/10/05 02:08:38;;;;;;;4.87;3.80;;;16.80;59.00;;;;;;5046053;28;20490;-47
2022/10/05 02:11:10;;;;;;;4.67;4.23;;;16.70;58.40;;;;;;5038107;28;20486;-45
2022/10/05 02:13:59;;;;;;;5.90;4.90;;;16.70;58.70;;;;;;5041266;28;20493;-50
2022/10/05 02:16:36;;;;;;;4.10;3.80;;;16.80;58.60;;;;;;5033646;28;20501;-49
2022/10/05 02:19:19;;;;;;;4.60;4.20;;;16.90;58.40;;;;;;5047489;28;20447;-46
2022/10/05 02:21:50;;;;;;;5.23;4.07;;;16.90;58.20;;;;;;5043021;28;20500;-46
2022/10/05 02:24:25;;;;;;;4.33;4.00;;;16.90;57.90;;;;;;5044143;28;20438;-47
2022/10/05 02:26:54;;;;;;;4.37;3.97;;;16.90;57.90;;;;;;5046795;28;20438;-46
2022/10/05 02:29:23;;;;;;;5.20;4.70;;;16.70;58.20;;;;;;5043177;28;20510;-47
2022/10/05 02:32:03;;;;;;;4.67;4.27;;;16.60;58.40;;;;;;5040693;28;20465;-46
2022/10/05 02:34:30;;;;;;;4.87;4.37;;;16.40;59.00;;;;;;5037632;28;20446;-46
2022/10/05 02:37:29;;;;;;;6.53;4.10;;;16.10;59.80;;;;;;5044725;28;20455;-46
2022/10/05 02:40:15;;;;;;;6.13;4.20;;;15.80;62.10;;;;;;5046137;28;20454;-46
2022/10/05 02:43:10;;;;;;;4.87;4.50;;;15.70;62.10;;;;;;5044830;28;20471;-46
2022/10/05 02:45:41;;;;;;;5.00;4.60;;;15.70;62.80;;;;;;5051238;28;20451;-46
2022/10/05 02:48:14;;;;;;;6.27;4.33;;;15.80;62.10;;;;;;5045586;28;20483;-47
2022/10/05 02:50:50;;;;;;;5.40;4.90;;;15.90;61.70;;;;;;5037648;28;20451;-46
2022/10/05 02:53:51;;;;;;;5.37;4.57;;;16.00;61.60;;;;;;5050257;28;20439;-47
2022/10/05 02:56:44;;;;;;;5.00;4.60;;;16.00;61.40;;;;;;5045887;28;20868;-46
2022/10/05 02:59:15;;;;;;;5.63;4.03;;;16.20;61.00;;;;;;5047439;28;20474;-46
2022/10/05 03:02:14;;;;;;;5.80;4.43;;;16.20;60.10;;;;;;5047475;28;20446;-46
2022/10/05 03:04:54;;;;;;;6.20;4.27;;;16.40;60.10;;;;;;5050902;28;20450;-51
2022/10/05 03:07:26;;;;;;;5.73;3.70;;;16.40;59.50;;;;;;5045394;28;20466;-47
2022/10/05 03:09:56;;;;;;;4.00;3.53;;;16.50;59.50;;;;;;5047578;28;20453;-46
2022/10/05 03:12:48;;;;;;;3.90;3.60;;;16.60;59.30;;;;;;5049405;28;20439;-51
2022/10/05 03:15:45;;;;;;;4.80;4.40;;;16.60;58.90;;;;;;5048508;28;20447;-51
2022/10/05 03:18:34;;;;;;;4.07;3.67;;;16.60;58.80;;;;;;5016741;28;20538;-50
2022/10/05 03:21:16;;;;;;;4.27;3.87;;;16.30;59.50;;;;;;5048279;28;20509;-51
2022/10/05 03:23:51;;;;;;;4.17;3.87;;;16.10;59.40;;;;;;5044716;28;20444;-50
2022/10/05 03:26:32;;;;;;;4.83;3.90;;;16.10;60.50;;;;;;5039553;28;20554;-50
2022/10/05 03:29:09;;;;;;;4.33;3.93;;;16.10;59.70;;;;;;5039632;28;20559;-51
2022/10/05 03:31:54;;;;;;;3.67;3.37;;;16.20;59.40;;;;;;5049225;28;20799;-50
2022/10/05 03:34:35;;;;;;;4.97;3.67;;;16.20;59.50;;;;;;5051531;28;20454;-50
2022/10/05 03:37:12;;;;;;;7.70;3.80;;;16.20;59.30;;;;;;5039461;28;20853;-50
2022/10/05 03:39:47;;;;;;;6.90;4.43;;;16.30;58.90;;;;;;5048373;28;20537;-50
2022/10/05 03:42:22;;;;;;;4.67;4.27;;;16.40;59.30;;;;;;5046665;28;20439;-50
2022/10/05 03:45:05;;;;;;;4.60;3.80;;;16.40;59.30;;;;;;5046106;28;20435;-49
2022/10/05 03:47:44;;;;;;;4.53;4.23;;;16.40;59.00;;;;;;5032137;28;20486;-46
2022/10/05 03:50:16;;;;;;;5.67;4.10;;;16.30;58.20;;;;;;5050593;28;20989;-47
2022/10/05 03:52:50;;;;;;;4.43;3.90;;;15.70;58.90;;;;;;5041477;28;20944;-50
2022/10/05 03:55:47;;;;;;;4.20;3.90;;;15.70;59.70;;;;;;5041739;28;20448;-49
2022/10/05 03:58:22;;;;;;;4.40;4.00;;;15.70;60.00;;;;;;5035567;28;20456;-47
2022/10/05 04:00:52;;;;;;;4.03;3.73;;;15.60;60.90;;;;;;5049446;28;20446;-48
2022/10/05 04:03:23;;;;;;;4.80;4.37;;;15.40;61.30;;;;;;5047150;28;20450;-51
2022/10/05 04:05:54;;;;;;;3.77;3.47;;;15.50;61.30;;;;;;5044002;28;20446;-48
2022/10/05 04:08:43;;;;;;;4.67;3.80;;;15.40;61.00;;;;;;5044954;28;20486;-47
2022/10/05 04:11:18;;;;;;;4.63;4.23;;;15.30;61.30;;;;;;5037997;28;20909;-47
2022/10/05 04:13:50;;;;;;;4.60;4.20;;;14.80;62.40;;;;;;5050410;28;20443;-50
2022/10/05 04:16:16;;;;;;;3.90;3.60;;;14.60;63.70;;;;;;5048047;28;20827;-47
2022/10/05 04:18:53;;;;;;;4.07;3.63;;;14.30;66.00;;;;;;5048468;28;20439;-48
2022/10/05 04:21:23;;;;;;;4.97;4.13;;;14.20;65.80;;;;;;5030645;28;20219;-49
2022/10/05 04:24:17;;;;;;;5.80;5.00;;;14.30;65.60;;;;;;5042401;28;20885;-47
2022/10/05 04:26:47;;;;;;;4.93;3.90;;;14.40;65.30;;;;;;5044449;28;20455;-50
2022/10/05 04:29:28;;;;;;;4.20;3.80;;;14.30;65.10;;;;;;5050253;28;20565;-46
2022/10/05 04:32:15;;;;;;;5.90;5.37;;;14.30;65.40;;;;;;5037465;28;21104;-49
2022/10/05 04:35:13;;;;;;;3.67;3.37;;;14.30;65.60;;;;;;5051031;28;20504;-49
2022/10/05 04:38:04;;;;;;;4.13;3.77;;;14.10;65.90;;;;;;5025981;28;20454;-47
2022/10/05 04:41:01;;;;;;;5.27;3.90;;;14.00;66.60;;;;;;5047807;28;20526;-46
2022/10/05 04:43:54;;;;;;;3.97;3.57;;;14.10;66.20;;;;;;5046128;28;20905;-48
2022/10/05 04:47:03;;;;;;;4.97;4.47;;;14.00;66.80;;;;;;5046370;28;20490;-47
2022/10/05 04:49:34;;;;;;;4.10;3.80;;;13.90;66.70;;;;;;4946153;28;20479;-47
2022/10/05 04:52:14;;;;;;;3.83;3.43;;;13.80;67.30;;;;;;4947590;28;20626;-48
2022/10/05 04:54:46;;;;;;;4.20;3.80;;;13.70;67.60;;;;;;5006080;28;20451;-48
2022/10/05 04:57:26;;;;;;;4.17;3.67;;;13.60;68.20;;;;;;5047120;28;20511;-46
2022/10/05 05:00:13;;;;;;;4.30;3.80;;;13.60;68.30;;;;;;5043426;28;20530;-49
2022/10/05 05:02:51;;;;;;;3.77;3.47;;;13.60;68.50;;;;;;5044159;28;21219;-46
2022/10/05 05:05:19;;;;;;;7.50;4.10;;;13.70;68.10;;;;;;5045955;28;20430;-46
2022/10/05 05:08:03;;;;;;;4.13;3.83;;;13.70;67.60;;;;;;5044863;28;20486;-47
2022/10/05 05:10:40;;;;;;;6.27;3.77;;;13.80;67.20;;;;;;5040335;28;20443;-46
2022/10/05 05:13:26;;;;;;;4.23;3.83;;;13.80;67.00;;;;;;5043415;28;20438;-46
2022/10/05 05:16:02;;;;;;;4.67;4.27;;;13.80;67.00;;;;;;5041609;28;20455;-47
2022/10/05 05:19:10;;;;;;;5.93;5.43;;;13.70;67.60;;;;;;5040655;28;20490;-47
2022/10/05 05:21:44;;;;;;;4.87;4.40;;;13.90;68.50;;;;;;5039192;28;20589;-47
2022/10/05 05:24:21;;;;;;;10.73;4.87;;;14.10;67.30;;;;;;5046749;28;20501;-47
2022/10/05 05:27:01;;;;;;;4.60;4.20;;;14.20;67.50;;;;;;5046836;28;20445;-47
2022/10/05 05:29:56;;;;;;;4.20;3.80;;;14.40;67.00;;;;;;5037744;28;20522;-48
2022/10/05 05:32:48;;;;;;;4.37;3.33;;;14.50;66.30;;;;;;5044287;28;20467;-46
2022/10/05 05:35:41;;;;;;;4.10;3.70;;;14.60;65.50;;;;;;5040528;28;20444;-48
2022/10/05 05:38:28;;;;;;;3.80;3.40;;;14.60;65.00;;;;;;5040016;28;20496;-47
2022/10/05 05:41:42;;;;;;;9.43;4.40;;;14.50;65.30;;;;;;5041550;28;20439;-47
2022/10/05 05:44:24;;;;;;;4.77;4.40;;;14.40;66.00;;;;;;5018680;28;20478;-46
2022/10/05 05:46:58;;;;;;;4.13;3.83;;;14.50;65.60;;;;;;5040872;28;20455;-46
2022/10/05 05:49:37;;;;;;;4.47;4.07;;;14.50;65.90;;;;;;5044269;28;20494;-47
2022/10/05 05:52:11;;;;;;;4.10;3.80;;;14.60;65.30;;;;;;5038609;28;20531;-46
2022/10/05 05:55:01;;;;;;;3.80;3.50;;;14.40;65.80;;;;;;5049509;28;20605;-46
2022/10/05 05:57:39;;;;;;;4.73;3.83;;;14.60;65.60;;;;;;5034140;28;20552;-46
2022/10/05 06:00:17;;;;;;;4.07;3.77;;;14.70;64.70;;;;;;5046881;28;20450;-49
2022/10/05 06:02:54;;;;;;;4.83;4.10;;;14.80;64.40;;;;;;5044076;28;20451;-49
2022/10/05 06:05:29;;;;;;;4.23;3.87;;;14.70;64.20;;;;;;5047994;28;20458;-48
2022/10/05 06:07:57;;;;;;;3.70;3.40;;;14.80;64.60;;;;;;5038387;28;20541;-47
2022/10/05 06:10:23;;;;;;;6.40;4.00;;;14.90;65.20;;;;;;5043940;28;20505;-51
2022/10/05 06:12:53;;;;;;;5.03;4.63;;;14.80;64.50;;;;;;5047295;28;21035;-51
2022/10/05 06:15:32;;;;;;;4.30;3.80;;;14.90;64.20;;;;;;5044961;28;20900;-49
2022/10/05 06:18:03;;;;;;;9.50;4.80;;;14.70;65.10;;;;;;5048983;28;20793;-47
2022/10/05 06:20:41;;;;;;;4.37;3.97;;;14.90;64.50;;;;;;5052111;28;20443;-50
2022/10/05 06:23:19;;;;;;;4.10;3.70;;;15.00;63.90;;;;;;5040560;28;21226;-50
2022/10/05 06:26:09;;;;;;;4.10;3.80;;;15.30;63.50;;;;;;5049706;28;20451;-51
2022/10/05 06:28:35;;;;;;;4.07;3.67;;;15.50;63.20;;;;;;5043127;28;20541;-48
2022/10/05 06:31:06;;;;;;;4.30;3.80;;;15.70;62.50;;;;;;5053365;28;20439;-47
2022/10/05 06:33:41;;;;;;;4.10;3.70;;;15.80;61.90;;;;;;5053852;28;20644;-47
2022/10/05 06:36:19;;;;;;;3.93;3.57;;;15.90;61.70;;;;;;5039034;28;20497;-51
2022/10/05 06:39:02;;;;;;;4.20;3.80;;;16.10;61.10;;;;;;5044447;28;20431;-51
2022/10/05 06:41:40;;;;;;;4.13;3.47;;;16.40;60.50;;;;;;5038121;28;20455;-51
2022/10/05 06:44:23;;;;;;;4.10;3.03;;;16.50;59.10;;;;;;5052794;28;20446;-51
2022/10/05 06:47:06;;;;;;;5.93;4.40;;;16.60;59.00;;;;;;5044954;28;20819;-52
2022/10/05 06:49:47;;;;;;;4.37;3.80;;;16.70;58.50;;;;;;5048102;28;20488;-48
2022/10/05 06:52:32;;;;;;;4.30;3.90;;;16.80;58.30;;;;;;5042210;28;20779;-49
2022/10/05 06:55:06;;;;;;;3.97;3.63;;;16.90;58.60;;;;;;5044251;28;20469;-49
2022/10/05 06:57:43;;;;;;;3.67;3.37;;;17.00;58.40;;;;;;5050353;28;20450;-51
2022/10/05 07:00:26;;;;;;;4.20;3.83;;;17.10;58.20;;;;;;5041352;28;20479;-51
2022/10/05 07:03:18;;;;;;;4.20;3.90;;;17.20;58.30;;;;;;5049988;28;20493;-49
2022/10/05 07:06:03;;;;;;;4.33;4.03;;;17.40;58.50;;;;;;5015241;28;20431;-49
2022/10/05 07:08:40;;;;;;;4.20;3.90;;;17.70;58.10;;;;;;5052858;28;22378;-47
2022/10/05 07:11:33;;;;;;;5.03;4.07;;;17.80;57.50;;;;;;5042879;28;20433;-51
2022/10/05 07:14:23;;;;;;;4.23;3.93;;;18.00;57.40;;;;;;5052918;28;20968;-50
2022/10/05 07:16:48;;;;;;;4.20;3.80;;;18.10;57.70;;;;;;5036742;28;20815;-47
2022/10/05 07:19:56;;;;;;;4.43;4.07;;;18.10;57.50;;;;;;5038356;28;20489;-50
2022/10/05 07:22:53;;;;;;;4.90;4.50;;;18.20;57.30;;;;;;4950983;28;20286;-49
2022/10/05 07:25:29;;;;;;;4.03;3.70;;;18.30;57.10;;;;;;5043857;28;20473;-50
2022/10/05 07:28:10;;;;;;;4.77;3.67;;;18.40;56.90;;;;;;5037360;28;20566;-51
2022/10/05 07:30:59;;;;;;;5.00;4.60;;;18.30;56.80;;;;;;5055274;28;20462;-52
2022/10/05 07:33:42;;;;;;;5.80;4.50;;;18.50;56.90;;;;;;5036886;28;20588;-50
2022/10/05 07:39:11;;;;;;;5.00;4.40;;;18.40;56.90;;;;;;5045097;28;20446;-51
2022/10/05 07:41:50;;;;;;;4.80;4.40;;;18.60;57.10;;;;;;5032360;28;20470;-51
2022/10/05 07:44:18;;;;;;;9.17;4.20;;;18.80;56.70;;;;;;5040304;28;20475;-51
2022/10/05 07:46:54;;;;;;;5.07;4.57;;;18.90;56.10;;;;;;5037347;28;20448;-51
2022/10/05 07:49:46;;;;;;;4.20;3.90;;;18.90;56.50;;;;;;5042008;28;20873;-50
2022/10/05 07:52:15;;;;;;;4.57;4.27;;;18.80;56.60;;;;;;5032306;28;20440;-47
2022/10/05 07:55:05;;;;;;;7.50;4.30;;;18.90;56.60;;;;;;5048050;28;20439;-48
2022/10/05 07:57:34;;;;;;;4.50;4.13;;;19.00;56.70;;;;;;5033674;28;20476;-47
2022/10/05 08:00:11;;;;;;;6.00;5.20;;;19.00;56.40;;;;;;5039426;28;20444;-50
2022/10/05 08:02:41;;;;;;;4.57;4.17;;;19.00;56.40;;;;;;5031868;28;20517;-51
2022/10/05 08:05:18;;;;;;;5.43;4.93;;;19.00;56.50;;;;;;5050009;28;20442;-47
2022/10/05 08:07:46;;;;;;;5.40;4.90;;;19.10;56.40;;;;;;5050210;28;20640;-51
2022/10/05 08:10:21;;;;;;;6.07;4.57;;;19.20;56.30;;;;;;5041267;28;20437;-49
2022/10/05 08:13:10;;;;;;;7.60;4.93;;;19.10;56.00;;;;;;5040747;28;20532;-47
2022/10/05 08:15:41;;;;;;;5.53;4.53;;;18.70;56.90;;;;;;5044807;28;20873;-46
2022/10/05 08:18:38;;;;;;;5.10;4.67;;;18.70;57.60;;;;;;5049142;28;20442;-50
2022/10/05 08:21:10;;;;;;;4.47;4.17;;;18.80;57.40;;;;;;5044862;28;20443;-50
2022/10/05 08:23:56;;;;;;;5.80;4.53;;;18.60;57.90;;;;;;5042831;28;20450;-50
2022/10/05 08:26:40;;;;;;;4.40;4.10;;;18.40;58.30;;;;;;5046603;28;20455;-50
2022/10/05 08:29:34;;;;;;;5.30;4.50;;;18.60;58.40;;;;;;5042080;28;21542;-50
2022/10/05 08:32:08;;;;;;;4.33;4.03;;;18.60;58.40;;;;;;5031649;28;20500;-51
2022/10/05 08:34:46;;;;;;;5.03;4.63;;;18.90;58.30;;;;;;5041181;28;20435;-49
2022/10/05 08:37:22;;;;;;;4.90;4.50;;;19.10;58.20;;;;;;5045755;28;20443;-47
2022/10/05 08:39:59;;;;;;;4.83;4.43;;;19.20;57.80;;;;;;5040237;28;20446;-47
2022/10/05 08:42:49;;;;;;;6.10;3.90;;;18.90;57.50;;;;;;5042625;28;20453;-47
2022/10/05 08:45:31;;;;;;;4.80;4.40;;;19.00;58.30;;;;;;5046649;28;20983;-46
2022/10/05 08:48:16;;;;;;;4.23;3.93;;;19.10;57.90;;;;;;5044638;28;20475;-49
2022/10/05 08:51:09;;;;;;;4.30;3.73;;;19.40;57.60;;;;;;5043069;28;20439;-48
2022/10/05 08:54:12;;;;;;;4.27;3.97;;;19.70;57.30;;;;;;5043352;28;20510;-48
2022/10/05 08:56:42;;;;;;;4.17;3.77;;;20.00;57.10;;;;;;5046521;28;20454;-47
2022/10/05 08:59:28;;;;;;;3.83;3.43;;;20.10;56.60;;;;;;5044479;28;22617;-48
2022/10/05 09:02:08;;;;;;;4.30;3.90;;;20.10;56.30;;;;;;5039224;28;20447;-48
2022/10/05 09:04:50;;;;;;;4.87;4.47;;;20.20;56.40;;;;;;5037344;28;20438;-47
2022/10/05 09:07:55;;;;;;;5.90;3.83;;;20.30;55.90;;;;;;5041458;28;20454;-46
2022/10/05 09:10:27;;;;;;;6.07;3.90;;;20.20;56.50;;;;;;5040872;28;20487;-48
2022/10/05 09:13:32;;;;;;;5.53;3.43;;;20.30;56.80;;;;;;5048623;28;20447;-47
2022/10/05 09:16:09;;;;;;;3.87;3.57;;;20.70;56.10;;;;;;5039719;28;20925;-47
2022/10/05 09:18:58;;;;;;;4.07;3.77;;;21.00;55.50;;;;;;5038630;28;21009;-47
2022/10/05 09:21:32;;;;;;;3.97;3.67;;;21.30;55.50;;;;;;5048870;28;20435;-47
2022/10/05 09:24:13;;;;;;;3.80;3.50;;;21.60;54.00;;;;;;5047512;28;20587;-47
2022/10/05 09:27:00;;;;;;;4.60;4.20;;;21.70;53.50;;;;;;5048998;28;20443;-47
2022/10/05 09:29:51;;;;;;;4.20;3.40;;;21.80;53.30;;;;;;5045176;28;20992;-47
2022/10/05 09:32:34;;;;;;;4.53;3.53;;;21.90;53.80;;;;;;5037948;28;20450;-47
2022/10/05 09:35:38;;;;;;;4.07;3.67;;;22.30;53.50;;;;;;5049255;28;20533;-50
2022/10/05 09:38:22;;;;;;;3.87;3.57;;;22.50;53.40;;;;;;5044294;28;20855;-47
2022/10/05 09:41:25;;;;;;;4.27;3.50;;;22.70;52.60;;;;;;5043937;28;20461;-48
2022/10/05 09:44:20;;;;;;;5.33;3.40;;;23.00;52.80;;;;;;5047707;28;20874;-47
2022/10/05 09:47:40;;;;;;;5.40;3.63;;;23.10;52.10;;;;;;5015431;28;20447;-47
2022/10/05 09:50:46;;;;;;;5.60;3.33;;;23.10;51.40;;;;;;4938139;28;20559;-48
2022/10/05 09:53:39;;;;;;;4.07;3.77;;;23.30;51.40;;;;;;5041938;28;20442;-47
2022/10/05 09:56:25;;;;;;;5.77;3.50;;;23.60;50.90;;;;;;5043211;28;20456;-47
2022/10/05 09:59:28;;;;;;;3.17;2.90;;;23.70;50.90;;;;;;5030731;28;20447;-47
2022/10/05 10:01:59;;;;;;;3.43;3.13;;;23.90;51.00;;;;;;5046538;28;20462;-48
2022/10/05 10:04:52;;;;;;;3.50;3.20;;;24.00;50.00;;;;;;5048481;28;20451;-47
2022/10/05 10:07:31;;;;;;;4.03;3.10;;;23.80;49.60;;;;;;5040476;28;20458;-47
2022/10/05 10:09:56;;;;;;;3.47;2.97;;;23.70;50.10;;;;;;5039156;28;20443;-47
2022/10/05 10:12:22;;;;;;;3.13;2.70;;;24.00;50.30;;;;;;5045005;28;20788;-48
2022/10/05 10:15:02;;;;;;;3.27;2.97;;;24.20;50.60;;;;;;5046107;28;20181;-47
2022/10/05 10:18:12;;;;;;;3.80;3.13;;;24.30;48.80;;;;;;5040229;28;20193;-46
2022/10/05 10:20:48;;;;;;;3.00;2.80;;;24.00;50.30;;;;;;4966258;28;20477;-50
2022/10/05 10:23:58;;;;;;;3.17;2.87;;;24.10;50.10;;;;;;5033621;28;20530;-47
2022/10/05 10:26:43;;;;;;;3.40;3.00;;;24.50;49.30;;;;;;5040870;28;20442;-48
2022/10/05 10:29:44;;;;;;;4.17;3.13;;;24.90;48.60;;;;;;5046989;28;20522;-47
2022/10/05 10:32:10;;;;;;;2.87;2.67;;;25.30;48.50;;;;;;5036946;28;20453;-49
2022/10/05 10:35:06;;;;;;;3.13;2.90;;;25.30;47.20;;;;;;5043898;28;20435;-49
2022/10/05 10:38:09;;;;;;;2.70;2.40;;;25.40;47.50;;;;;;5048394;28;20243;-47
2022/10/05 10:41:02;;;;;;;2.80;2.60;;;25.70;48.60;;;;;;5049303;28;20451;-48
2022/10/05 10:44:06;;;;;;;3.33;3.00;;;26.10;46.80;;;;;;5034881;28;20443;-48
2022/10/05 10:47:09;;;;;;;2.97;2.67;;;26.50;46.80;;;;;;5043661;28;20449;-48
2022/10/05 10:49:43;;;;;;;4.70;2.83;;;26.60;46.10;;;;;;5047939;28;20846;-51
2022/10/05 10:52:27;;;;;;;3.73;2.80;;;26.90;45.30;;;;;;5046249;28;20454;-48
2022/10/05 10:55:22;;;;;;;3.07;2.87;;;27.20;45.30;;;;;;5045178;28;20477;-48
2022/10/05 10:58:17;;;;;;;4.53;2.47;;;27.40;45.50;;;;;;5040962;28;20459;-48
2022/10/05 11:00:58;;;;;;;2.33;2.13;;;27.50;44.30;;;;;;5046127;28;20546;-50
2022/10/05 11:03:29;;;;;;;3.17;2.73;;;27.70;44.60;;;;;;5039511;28;20547;-48
2022/10/05 11:06:35;;;;;;;2.23;2.03;;;27.60;44.10;;;;;;5049701;28;20439;-48
2022/10/05 11:09:28;;;;;;;4.60;2.53;;;27.80;43.20;;;;;;5045663;28;20926;-47
2022/10/05 11:12:31;;;;;;;3.00;2.60;;;27.90;43.80;;;;;;5050194;28;20449;-49
2022/10/05 11:15:00;;;;;;;6.37;2.33;;;28.00;43.70;;;;;;5042202;28;20446;-51
2022/10/05 11:17:43;;;;;;;2.27;2.03;;;28.20;43.70;;;;;;5051925;28;20858;-50
2022/10/05 11:20:37;;;;;;;2.23;1.80;;;28.40;43.60;;;;;;5048668;28;20439;-48
2022/10/05 11:23:27;;;;;;;3.80;2.20;;;28.50;42.80;;;;;;5045883;28;20439;-50
2022/10/05 11:26:01;;;;;;;2.20;1.90;;;28.20;42.10;;;;;;5043119;28;20475;-49
2022/10/05 11:28:44;;;;;;;2.60;2.40;;;28.30;42.40;;;;;;5041019;28;20486;-49
2022/10/05 11:32:04;;;;;;;3.57;2.37;;;28.30;43.10;;;;;;5042025;28;20832;-51
2022/10/05 11:34:38;;;;;;;3.63;2.20;;;28.60;42.30;;;;;;4952309;29;20544;-50
2022/10/05 11:37:27;;;;;;;4.40;2.17;;;28.80;41.50;;;;;;5047582;28;20451;-48
2022/10/05 11:39:59;;;;;;;2.17;1.97;;;28.90;41.50;;;;;;5049180;28;20450;-52
2022/10/05 11:43:01;;;;;;;2.40;2.20;;;28.90;42.10;;;;;;5042719;28;20844;-52
2022/10/05 11:45:54;;;;;;;4.13;2.00;;;28.90;41.50;;;;;;5041655;28;20442;-50
2022/10/05 11:48:38;;;;;;;2.33;1.97;;;28.70;42.20;;;;;;5045816;28;20544;-49
2022/10/05 11:51:34;;;;;;;2.30;2.10;;;28.80;41.50;;;;;;5047971;28;20449;-52
2022/10/05 11:54:16;;;;;;;3.00;2.37;;;28.50;42.30;;;;;;5041793;28;20947;-50
2022/10/05 11:56:54;;;;;;;2.53;2.33;;;28.60;42.40;;;;;;5045040;28;22536;-51
2022/10/05 11:59:40;;;;;;;2.57;2.10;;;28.70;41.70;;;;;;5042612;28;20475;-52
2022/10/05 12:02:43;;;;;;;2.30;2.03;;;28.80;42.40;;;;;;5043004;28;20580;-50
2022/10/05 12:05:35;;;;;;;3.63;2.33;;;28.90;41.90;;;;;;5043076;28;20447;-48
2022/10/05 12:08:29;;;;;;;2.30;2.10;;;29.00;42.00;;;;;;5049554;28;20494;-50
2022/10/05 12:11:16;;;;;;;2.73;2.53;;;29.20;41.80;;;;;;5038572;28;20546;-52
2022/10/05 12:14:06;;;;;;;2.83;2.63;;;29.20;41.70;;;;;;5045486;28;20463;-49
2022/10/05 12:17:09;;;;;;;3.63;2.20;;;29.30;42.30;;;;;;5043332;28;20977;-51
2022/10/05 12:19:46;;;;;;;2.80;2.00;;;29.40;42.00;;;;;;5005970;28;20465;-49
2022/10/05 12:22:50;;;;;;;2.23;2.00;;;29.50;41.90;;;;;;5044299;28;20449;-49
2022/10/05 12:25:43;;;;;;;3.30;2.20;;;29.50;41.80;;;;;;5046924;28;20458;-49
2022/10/05 12:28:14;;;;;;;2.97;2.17;;;29.70;41.60;;;;;;5035397;28;20487;-49
2022/10/05 12:31:02;;;;;;;2.37;2.00;;;29.70;41.10;;;;;;5049838;28;20554;-51
2022/10/05 12:33:56;;;;;;;3.33;2.17;;;29.80;40.80;;;;;;5046893;28;20911;-52
2022/10/05 12:36:33;;;;;;;2.83;2.20;;;30.10;41.70;;;;;;4998495;28;20443;-49
2022/10/05 12:39:22;;;;;;;2.00;1.90;;;30.20;40.70;;;;;;5047222;28;20533;-51
2022/10/05 12:41:52;;;;;;;3.70;2.07;;;30.00;39.90;;;;;;5042217;28;20821;-50
2022/10/05 12:44:36;;;;;;;2.97;2.40;;;30.00;39.90;;;;;;5051083;28;20433;-52
2022/10/05 12:47:26;;;;;;;3.67;2.13;;;30.00;40.40;;;;;;5047441;28;20454;-51
2022/10/05 12:50:09;;;;;;;2.07;1.97;;;30.10;40.00;;;;;;5050368;28;20534;-49
2022/10/05 12:52:47;;;;;;;2.13;1.93;;;30.10;40.00;;;;;;5047373;28;20534;-49
2022/10/05 12:55:24;;;;;;;1.97;1.87;;;30.00;39.80;;;;;;5048415;28;21126;-52
2022/10/05 12:58:04;;;;;;;2.43;2.23;;;29.90;40.10;;;;;;5045905;28;20545;-51
2022/10/05 13:00:33;;;;;;;5.83;2.43;;;29.70;40.70;;;;;;5049473;28;20456;-50
2022/10/05 13:03:32;;;;;;;1.97;1.83;;;29.90;40.20;;;;;;5028239;28;20463;-49
2022/10/05 13:06:23;;;;;;;2.67;1.70;;;30.00;40.00;;;;;;5049194;28;20533;-50
2022/10/05 13:09:01;;;;;;;2.43;1.90;;;30.00;39.70;;;;;;5044319;28;20510;-52
2022/10/05 13:11:56;;;;;;;2.20;1.90;;;30.10;40.40;;;;;;5038216;28;20436;-50
2022/10/05 13:14:36;;;;;;;1.83;1.73;;;30.10;40.40;;;;;;5038000;28;20573;-51
2022/10/05 13:17:34;;;;;;;2.60;2.40;;;30.00;40.20;;;;;;5042395;28;20483;-51
2022/10/05 13:20:38;;;;;;;3.20;1.60;;;30.10;40.20;;;;;;5044270;28;20906;-50
2022/10/05 13:23:42;;;;;;;1.80;1.70;;;30.20;38.80;;;;;;5041885;28;20450;-51
2022/10/05 13:26:15;;;;;;;5.60;1.80;;;30.20;38.80;;;;;;5008618;28;20546;-51
2022/10/05 13:29:21;;;;;;;4.43;1.63;;;30.20;37.90;;;;;;5042762;28;20487;-52
2022/10/05 13:31:52;;;;;;;1.77;1.20;;;30.20;37.10;;;;;;5043986;28;20856;-49
2022/10/05 13:34:48;;;;;;;1.20;1.17;;;30.20;34.90;;;;;;5046729;28;20473;-50
2022/10/05 13:37:14;;;;;;;1.30;1.20;;;29.80;34.00;;;;;;5019709;28;20850;-52
2022/10/05 13:40:13;;;;;;;1.63;1.20;;;29.80;35.10;;;;;;5040773;28;20428;-48
2022/10/05 13:42:51;;;;;;;1.67;1.20;;;29.90;34.10;;;;;;5035074;28;20193;-52
2022/10/05 13:45:23;;;;;;;1.23;1.10;;;29.70;33.30;;;;;;5038767;28;20939;-50
2022/10/05 13:48:41;;;;;;;1.57;1.10;;;29.60;33.20;;;;;;5045842;28;20499;-51
2022/10/05 13:51:17;;;;;;;1.70;1.60;;;29.60;33.50;;;;;;5028524;28;20452;-51
2022/10/05 13:53:54;;;;;;;1.20;1.10;;;29.60;33.40;;;;;;5046167;28;20562;-48
2022/10/05 13:56:59;;;;;;;1.43;1.33;;;29.90;33.50;;;;;;5041306;28;20466;-49
2022/10/05 13:59:54;;;;;;;1.33;1.23;;;29.90;33.40;;;;;;5001575;28;20442;-52
2022/10/05 14:02:34;;;;;;;1.23;1.13;;;30.00;33.90;;;;;;5048352;28;20439;-50
2022/10/05 14:05:12;;;;;;;4.97;1.70;;;30.10;33.20;;;;;;5044633;28;20439;-50
2022/10/05 14:08:00;;;;;;;1.40;1.30;;;30.00;33.30;;;;;;5044928;28;20447;-51
2022/10/05 14:10:41;;;;;;;4.57;2.30;;;30.30;33.20;;;;;;5045834;28;20872;-49
2022/10/05 14:13:19;;;;;;;1.47;1.37;;;30.30;32.20;;;;;;5045758;28;20835;-53